WEB kamera na Vojskem več informacij WEB-CAM on Vojsko


Kamera v Zali več informacij Kamera v Zali



Prišlo je do težav v komunikacij. Obišči direktno Meteoalarm web-stran: www.meteoalarm.eu and check the Weather-warnings there .

Nearby METAR Reports

   
LJLJ - Idrija
Updated: 19.06.2018 20:00
Delno oblačno  
Delno oblačno  
   Veter: ESE 13 km/h
Veter: ESE 13 km/h
Temperatura: 25°C
Rosišče: 13°C
Vlaga: 47%
Zračni tlak: 1020 hPa
Oblaki: Delno oblačno
Visibility: More than 10 km
Cloud details: Nekaj oblakov 7000 ft,
Delno oblačno 10000 ft
LJLJ 191800Z 12007KT 9999 FEW070 SCT100 25/13 Q1020 NOSIG
LJPZ - Koper
Updated: 19.06.2018 20:00
Nekaj oblakov  
Nekaj oblakov  
   Veter: NNE 7.4 km/h
Veter: NNE 7.4 km/h
Temperatura: 30°C
Rosišče: 14°C
Vlaga: 38%
Zračni tlak: 1018 hPa
Oblaki: Nekaj oblakov
Visibility: More than 10 km
Cloud details: Nekaj oblakov 5000 ft
LJPZ 191800Z 03004KT 9999 FEW050 30/14 Q1018
LJLJ - Kranj
Updated: 19.06.2018 20:00
Delno oblačno  
Delno oblačno  
   Veter: ESE 13 km/h
Veter: ESE 13 km/h
Temperatura: 25°C
Rosišče: 13°C
Vlaga: 47%
Zračni tlak: 1020 hPa
Oblaki: Delno oblačno
Visibility: More than 10 km
Cloud details: Nekaj oblakov 7000 ft,
Delno oblačno 10000 ft
LJLJ 191800Z 12007KT 9999 FEW070 SCT100 25/13 Q1020 NOSIG

Script developed by  Saratoga-weather.org Adapted for the template by  Weerstation Leuven